This is the latest recevied weather packets stored in our database for station/object KC3HIX. If no packets are shown the sender has not sent any weather packets the latest 10 day(s).
| Time | Temp. | Humidity | Pressure | Rain* | Wind** | Luminosity | Snow |
|---|---|---|---|---|---|---|---|
| 1777876504 | 4.44° C | 85% | 1013.4 hPa | 0 mm | - | - | - |
| 1777873204 | 4.44° C | 83% | 1013.4 hPa | 0 mm | - | - | - |
| 1777872004 | 5° C | 82% | 1013.7 hPa | 0 mm | - | - | - |
| 1777871404 | 5° C | 81% | 1013.7 hPa | 0 mm | - | - | - |
| 1777870504 | 5° C | 81% | 1013.7 hPa | 0 mm | - | - | - |
| 1777869325 | 5.56° C | 80% | 1013.4 hPa | 0 mm | - | - | - |
| 1777868725 | 5.56° C | 79% | 1013.4 hPa | 0 mm | - | - | - |
| 1777868404 | 5.56° C | 79% | 1013.7 hPa | 0 mm | - | - | - |
| 1777866904 | 6.11° C | 76% | 1013.4 hPa | 0 mm | - | - | - |
| 1777866604 | 6.67° C | 77% | 1013.4 hPa | 0 mm | - | - | - |
| 1777864803 | 6.67° C | 75% | 1013 hPa | 0 mm | - | - | - |
| 1777863003 | 7.78° C | 70% | 1013 hPa | 0 mm | - | - | - |
| 1777861203 | 7.78° C | 67% | 1013 hPa | 0 mm | - | - | - |
| 1777860603 | 8.33° C | 65% | 1012.7 hPa | 0 mm | - | - | - |
| 1777855505 | 11.67° C | 46% | 1012.7 hPa | 0 mm | - | - | - |
| 1777854905 | 11.67° C | 44% | 1012.3 hPa | 0 mm | - | - | - |
| 1777854605 | 11.67° C | 45% | 1012.3 hPa | 0 mm | - | - | - |
| 1777853105 | 12.78° C | 43% | 1012 hPa | 0 mm | - | - | - |
| 1777852506 | 13.33° C | 41% | 1012.3 hPa | 0 mm | - | - | - |
| 1777848305 | 16.11° C | 34% | 1011.7 hPa | 0 mm | - | - | - |
| 1777847104 | 16.67° C | 34% | 1011.7 hPa | 0 mm | - | - | - |
| 1777846204 | 17.22° C | 34% | 1012 hPa | 0 mm | - | - | - |
| 1777843504 | 17.78° C | 33% | 1011.7 hPa | 0 mm | - | - | - |
| 1777842904 | 17.78° C | 32% | 1011.7 hPa | 0 mm | - | - | - |
| 1777840204 | 17.78° C | 31% | 1011.7 hPa | 0 mm | - | - | - |
* Rain latest hour (hover to see other rain measurements)
** Current wind speed in m/s (hover to see current wind gust speed)